Data for 02/21/2009

Time Sea-Level Adjusted Pressure Absolute Pressure Temperature Relative Humidity Dew Point   
(mb) (inHg) (mb) (inHg) (C) (F) (%) (C) (F)
00:05 1022 30.18 851 25.13 -6 21.2 69 -10.8 12.5
00:10 1022 30.18 851 25.13 -6 21.2 69 -10.8 12.6
00:15 1022 30.18 852 25.16 -6 21.2 69 -10.8 12.6
00:20 1022 30.18 852 25.16 -6.1 21.1 70 -10.7 12.8
00:25 1022 30.18 852 25.16 -6.2 20.9 70 -10.7 12.7
00:30 1023 30.21 852 25.16 -6.1 21.1 70 -10.8 12.6
00:35 1023 30.21 852 25.16 -5.9 21.3 69 -10.8 12.6
00:40 1023 30.21 852 25.16 -5.8 21.5 68 -10.9 12.4
00:45 1023 30.21 852 25.16 -5.8 21.5 68 -10.7 12.7
00:50 1023 30.21 852 25.16 -6.2 20.9 70 -10.8 12.6
00:55 1023 30.21 852 25.16 -6.3 20.6 70 -10.9 12.3
01:00 1023 30.21 852 25.16 -6.3 20.7 69 -11 12.2
01:05 1023 30.21 852 25.16 -6.2 20.9 68 -11 12.1
01:10 1023 30.21 852 25.16 -6.2 20.9 69 -10.9 12.4
01:15 1023 30.21 852 25.16 -6.3 20.7 70 -11 12.2
01:20 1023 30.21 852 25.16 -6.4 20.6 71 -10.9 12.4
01:25 1023 30.21 852 25.16 -6.4 20.6 70 -11 12.2
01:30 1023 30.21 852 25.16 -6.3 20.6 70 -11 12.2
01:35 1023 30.21 852 25.16 -6.3 20.6 70 -11 12.2
01:40 1023 30.21 852 25.16 -6.3 20.7 70 -10.9 12.3
01:45 1023 30.21 852 25.16 -6.3 20.6 70 -11 12.3
01:50 1023 30.21 852 25.16 -6.4 20.5 70 -11 12.1
01:55 1023 30.21 852 25.16 -6.4 20.4 70 -11 12.3
02:00 1023 30.21 852 25.16 -6.5 20.3 71 -11 12.2
02:05 1023 30.21 852 25.16 -6.6 20.1 71 -11 12.3
02:10 1023 30.21 852 25.16 -6.7 19.9 72 -10.9 12.3
02:15 1023 30.21 852 25.16 -7 19.4 73 -11.1 12.1
02:20 1023 30.21 852 25.16 -6.7 19.9 71 -11.1 12.1
02:25 1023 30.21 852 25.16 -6.7 20 72 -10.9 12.3
02:30 1023 30.21 852 25.16 -6.6 20.1 71 -11 12.1
02:35 1023 30.21 852 25.16 -6.5 20.3 71 -10.9 12.3
02:40 1023 30.21 852 25.16 -6.4 20.6 71 -10.9 12.4
02:45 1023 30.21 852 25.16 -6.4 20.4 72 -10.7 12.7
02:50 1023 30.21 852 25.16 -6.5 20.2 72 -10.8 12.5
02:55 1023 30.21 852 25.16 -6.5 20.3 72 -10.8 12.5
03:00 1023 30.21 852 25.16 -6.6 20.1 72 -10.9 12.4
03:05 1023 30.21 852 25.16 -6.5 20.2 72 -10.9 12.5
03:10 1023 30.21 852 25.16 -6.7 20 73 -10.8 12.6
03:15 1023 30.21 852 25.16 -6.9 19.7 73 -11 12.3
03:20 1023 30.21 852 25.16 -6.8 19.7 73 -11 12.3
03:25 1023 30.21 852 25.16 -6.7 19.9 72 -11 12.3
03:30 1023 30.21 852 25.16 -6.7 19.9 72 -11 12.3
03:35 1023 30.21 852 25.16 -6.7 19.9 72 -11 12.2
03:40 1023 30.21 852 25.16 -6.7 19.9 72 -11 12.2
03:45 1023 30.21 852 25.16 -6.4 20.4 71 -10.9 12.3
03:50 1023 30.21 852 25.16 -6.3 20.6 70 -11 12.2
03:55 1023 30.21 852 25.16 -6.4 20.4 71 -10.8 12.5
04:00 1023 30.21 852 25.16 -6.5 20.3 71 -11 12.3
04:05 1023 30.21 852 25.16 -6.6 20.1 71 -11 12.2
04:10 1023 30.21 852 25.16 -6.6 20.1 71 -11 12.1
04:15 1023 30.21 852 25.16 -6.6 20.1 71 -11 12.2
04:20 1023 30.21 852 25.16 -6.5 20.3 71 -11 12.2
04:25 1023 30.21 852 25.16 -6.6 20.2 71 -11 12.2
04:30 1023 30.21 852 25.16 -6.6 20.1 71 -11 12.1
04:35 1023 30.21 852 25.16 -6.7 20 71 -11.1 12.1
04:40 1023 30.21 852 25.16 -6.6 20.1 70 -11.1 12
04:45 1023 30.21 852 25.16 -6.4 20.4 70 -11.1 12
04:50 1023 30.21 852 25.16 -6.3 20.6 69 -11.1 12.1
04:55 1023 30.21 852 25.16 -6.5 20.4 70 -11 12.2
05:00 1023 30.21 852 25.16 -6.8 19.7 72 -11 12.1
05:05 1023 30.21 852 25.16 -7 19.4 73 -11.1 11.9
05:10 1023 30.21 852 25.16 -7.2 19 73 -11.2 11.8
05:15 1023 30.21 853 25.19 -7.4 18.7 74 -11.3 11.7
05:20 1023 30.21 853 25.19 -7.5 18.5 74 -11.3 11.6
05:25 1023 30.21 852 25.16 -7.4 18.7 74 -11.3 11.6
05:30 1023 30.21 853 25.19 -7.5 18.6 74 -11.4 11.5
05:35 1023 30.21 853 25.19 -7.4 18.6 74 -11.4 11.5
05:40 1023 30.21 852 25.16 -7.1 19.2 72 -11.3 11.7
05:45 1023 30.21 852 25.16 -7 19.4 72 -11.2 11.9
05:50 1023 30.21 852 25.16 -7.1 19.3 72 -11.3 11.7
05:55 1023 30.21 852 25.16 -7 19.4 72 -11.2 11.9
06:00 1023 30.21 852 25.16 -7.2 19.1 72 -11.3 11.6
06:05 1023 30.21 852 25.16 -7.2 19 73 -11.4 11.6
06:10 1023 30.21 852 25.16 -6.9 19.5 71 -11.3 11.6
06:15 1023 30.21 852 25.16 -6.8 19.7 71 -11.2 11.8
06:20 1023 30.21 852 25.16 -6.8 19.8 71 -11.2 11.9
06:25 1023 30.21 852 25.16 -6.8 19.8 71 -11.2 11.8
06:30 1023 30.21 852 25.16 -6.8 19.7 71 -11.2 11.8
06:35 1023 30.21 852 25.16 -7 19.4 72 -11.3 11.7
06:40 1023 30.21 852 25.16 -7.3 18.8 73 -11.3 11.6
06:45 1023 30.21 852 25.16 -7.6 18.4 74 -11.4 11.5
06:50 1023 30.21 852 25.16 -7.5 18.4 74 -11.5 11.3
06:55 1023 30.21 852 25.16 -7.3 18.9 72 -11.6 11.2
07:00 1023 30.21 852 25.16 -6.9 19.5 71 -11.3 11.6
07:05 1023 30.21 852 25.16 -6.9 19.7 71 -11.4 11.6
07:10 1023 30.21 852 25.16 -6.7 20 70 -11.3 11.7
07:15 1023 30.21 852 25.16 -6.6 20.1 69 -11.3 11.7
07:20 1023 30.21 852 25.16 -6.6 20.2 69 -11.3 11.7
07:25 1023 30.21 852 25.16 -6.5 20.3 69 -11.4 11.6
07:30 1023 30.21 852 25.16 -6.2 20.9 67 -11.3 11.6
07:35 1023 30.21 852 25.16 -6 21.1 67 -11.2 11.8
07:40 1023 30.21 852 25.16 -6 21.2 66 -11.3 11.6
07:45 1023 30.21 852 25.16 -5.9 21.5 65 -11.3 11.6
07:50 1023 30.21 853 25.19 -5.7 21.7 66 -11.2 11.9
07:55 1023 30.21 853 25.19 -5.9 21.4 66 -11.3 11.7
08:00 1023 30.21 853 25.19 -5.9 21.4 65 -11.4 11.5
08:05 1024 30.24 853 25.19 -5.6 22 63 -11.4 11.4
08:10 1024 30.24 853 25.19 -5.3 22.5 63 -11.3 11.7
08:15 1024 30.24 853 25.19 -5.1 22.9 63 -11.1 12
08:20 1024 30.24 853 25.19 -4.8 23.4 61 -11.2 11.9
08:25 1024 30.24 853 25.19 -4.5 23.9 59 -11.3 11.7
08:30 1024 30.24 853 25.19 -4 24.9 58 -11.1 12
08:35 1024 30.24 853 25.19 -3.6 25.5 57 -11 12.2
08:40 1024 30.24 853 25.19 -3.8 25.2 58 -10.9 12.3
08:45 1024 30.24 853 25.19 -3.9 25 58 -11 12.2
08:50 1024 30.24 853 25.19 -3.4 25.8 56 -11.1 12.1
08:55 1024 30.24 853 25.19 -3.3 26.1 56 -10.9 12.3
09:00 1024 30.24 853 25.19 -2.9 26.8 54 -10.9 12.3
09:05 1024 30.24 853 25.19 -2.6 27.3 54 -10.6 13
09:10 1024 30.24 853 25.19 -1.7 29 50 -10.7 12.8
09:15 1024 30.24 853 25.19 -1.4 29.5 50 -10.6 12.9
09:20 1024 30.24 853 25.19 -1.3 29.7 49 -10.7 12.8
09:25 1024 30.24 853 25.19 -1.2 29.8 48 -10.8 12.5
09:30 1024 30.24 853 25.19 -0.8 30.6 50 -10 13.9
09:35 1024 30.24 853 25.19 -0.6 31 48 -10.4 13.3
09:40 1024 30.24 853 25.19 -0.6 30.9 48 -10.3 13.4
09:45 1024 30.24 853 25.19 -0.8 30.5 53 -9.4 15.1
09:50 1023 30.21 853 25.19 -0.8 30.6 50 -10 14
09:55 1023 30.21 853 25.19 -0.5 31.2 47 -10.5 13.1
10:00 1023 30.21 853 25.19 -0.6 30.8 48 -10.5 13.2
10:05 1023 30.21 853 25.19 0.1 32.2 45 -10.4 13.3
10:10 1023 30.21 853 25.19 0.1 32.1 44 -10.7 12.8
10:15 1023 30.21 853 25.19 0.3 32.5 43 -10.8 12.6
10:20 1023 30.21 853 25.19 0.7 33.2 42 -10.8 12.5
10:25 1023 30.21 853 25.19 0.8 33.4 42 -10.6 13
10:30 1023 30.21 852 25.16 0.3 32.5 44 -10.7 12.7
10:35 1023 30.21 852 25.16 0.8 33.5 42 -10.8 12.5
10:40 1023 30.21 852 25.16 1.2 34.2 41 -10.6 12.9
10:45 1023 30.21 852 25.16 1.5 34.7 41 -10.4 13.3
10:50 1023 30.21 852 25.16 2.2 35.9 39 -10.4 13.3
10:55 1023 30.21 852 25.16 2.4 36.3 39 -10.2 13.7
11:00 1023 30.21 852 25.16 2.4 36.3 39 -10.1 13.8
11:05 1023 30.21 852 25.16 2.5 36.4 40 -9.9 14.1
11:10 1023 30.21 852 25.16 1.9 35.5 42 -9.7 14.5
11:15 1023 30.21 852 25.16 2.1 35.7 39 -10.4 13.2
11:20 1023 30.21 852 25.16 2.6 36.7 39 -10.2 13.7
11:25 1023 30.21 852 25.16 2.3 36.2 39 -10.2 13.6
11:30 1023 30.21 852 25.16 2.7 36.8 38 -10.4 13.4
11:35 1023 30.21 852 25.16 2.9 37.3 38 -9.9 14.2
11:40 1023 30.21 852 25.16 3.2 37.8 37 -10.3 13.5
11:45 1023 30.21 852 25.16 3 37.4 36 -10.8 12.6
11:50 1023 30.21 852 25.16 4 39.2 35 -10.3 13.5
11:55 1023 30.21 852 25.16 4.2 39.6 33 -10.7 12.7
12:00 1023 30.21 852 25.16 4 39.2 33 -10.7 12.7
12:05 1023 30.21 852 25.16 3.9 39 33 -11 12.2
12:10 1022 30.18 852 25.16 4 39.3 33 -11 12.3
12:15 1022 30.18 852 25.16 4.3 39.8 34 -10.4 13.3
12:20 1022 30.18 852 25.16 3.9 39.1 34 -10.7 12.7
12:25 1022 30.18 852 25.16 4.2 39.6 33 -10.9 12.4
12:30 1022 30.18 851 25.13 4.5 40.2 32 -11 12.2
12:35 1022 30.18 851 25.13 4.7 40.4 35 -9.4 15
12:40 1022 30.18 851 25.13 3.8 38.9 37 -9.5 15
12:45 1022 30.18 851 25.13 3.9 39.1 33 -11 12.2
12:50 1022 30.18 851 25.13 3.9 39.1 31 -11.6 11.2
12:55 1022 30.18 851 25.13 4.4 39.9 32 -10.9 12.4
13:00 1022 30.18 851 25.13 5.3 41.6 31 -10.7 12.8
13:05 1022 30.18 851 25.13 5.9 42.6 29 -10.7 12.7
13:10 1022 30.18 851 25.13 5.5 41.8 30 -10.9 12.4
13:15 1022 30.18 851 25.13 5.3 41.5 31 -10.6 12.9
13:20 1021 30.15 851 25.13 5.7 42.3 30 -10.7 12.8
13:25 1021 30.15 851 25.13 5.9 42.6 31 -9.9 14.1
13:30 1021 30.15 850 25.1 5.5 41.8 38 -7.8 17.9
13:35 1021 30.15 850 25.1 5.5 42 37 -8 17.7
13:40 1021 30.15 850 25.1 6.3 43.3 34 -8.5 16.7
13:45 1021 30.15 850 25.1 6.6 43.9 34 -8 17.6
13:50 1021 30.15 850 25.1 6.1 42.9 36 -7.9 17.8
13:55 1021 30.15 850 25.1 6.1 43 33 -8.9 16
14:00 1021 30.15 850 25.1 6.5 43.8 32 -8.9 16
14:05 1021 30.15 850 25.1 7.2 44.9 30 -9.2 15.5
14:10 1021 30.15 850 25.1 7.8 46 30 -8.9 16
14:15 1021 30.15 850 25.1 8.1 46.6 26 -10 13.9
14:20 1021 30.15 850 25.1 7.9 46.3 26 -10.3 13.5
14:25 1020 30.12 850 25.1 7.8 46.1 27 -9.9 14.1
14:30 1020 30.12 850 25.1 8.3 46.9 29 -8.6 16.5
14:35 1020 30.12 850 25.1 9.3 48.7 26 -9.2 15.5
14:40 1020 30.12 850 25.1 9.7 49.5 27 -8.4 16.8
14:45 1020 30.12 850 25.1 8.5 47.3 29 -8.5 16.7
14:50 1020 30.12 850 25.1 8.1 46.7 29 -8.8 16.2
14:55 1020 30.12 850 25.1 8.3 47 29 -8.9 16.1
15:00 1020 30.12 850 25.1 8.3 46.9 30 -8.4 17
15:05 1020 30.12 850 25.1 8.2 46.8 30 -8.5 16.7
15:10 1020 30.12 850 25.1 8.7 47.7 28 -8.6 16.5
15:15 1020 30.12 849 25.07 9.1 48.4 28 -8.4 16.8
15:20 1020 30.12 849 25.07 9.1 48.3 28 -8.4 16.8
15:25 1020 30.12 849 25.07 9 48.1 28 -8.7 16.3
15:30 1020 30.12 849 25.07 9 48.2 28 -8.4 17
15:35 1020 30.12 849 25.07 8.9 47.9 28 -8.8 16.1
15:40 1020 30.12 849 25.07 8.8 47.8 29 -8.3 17
15:45 1020 30.12 849 25.07 9 48.1 27 -8.9 16
15:50 1020 30.12 849 25.07 8.7 47.7 29 -8.5 16.7
15:55 1020 30.12 849 25.07 8.2 46.8 28 -9.1 15.6
16:00 1020 30.12 849 25.07 8.3 46.9 28 -9.1 15.7
16:05 1020 30.12 849 25.07 8.6 47.4 27 -9.3 15.2
16:10 1020 30.12 849 25.07 8.8 47.9 27 -9.2 15.4
16:15 1020 30.12 849 25.07 8.4 47.1 28 -9 15.7
16:20 1020 30.12 849 25.07 8.1 46.5 30 -8.7 16.4
16:25 1020 30.12 849 25.07 8.5 47.2 28 -9.1 15.5
16:30 1020 30.12 849 25.07 8.6 47.5 27 -9.4 15
16:35 1020 30.12 849 25.07 8.9 48 25 -9.8 14.3
16:40 1020 30.12 849 25.07 8.7 47.6 27 -9.2 15.4
16:45 1020 30.12 849 25.07 8.2 46.8 28 -9.3 15.3
16:50 1020 30.12 849 25.07 7.9 46.3 27 -9.8 14.4
16:55 1020 30.12 849 25.07 7.9 46.3 26 -10.4 13.3
17:00 1020 30.12 849 25.07 7.8 46.1 26 -10.5 13.1
17:05 1020 30.12 849 25.07 7.9 46.3 26 -10.6 13
17:10 1020 30.12 849 25.07 7.8 46 26 -10.4 13.3
17:15 1020 30.12 849 25.07 7.4 45.2 27 -10.3 13.4
17:20 1020 30.12 849 25.07 7.2 44.9 27 -10.5 13
17:25 1020 30.12 849 25.07 7.2 44.9 27 -10.5 13.1
17:30 1020 30.12 849 25.07 6.9 44.4 28 -10.5 13.1
17:35 1020 30.12 849 25.07 6.7 44 28 -10.4 13.3
17:40 1020 30.12 849 25.07 6.6 43.9 29 -10.1 13.8
17:45 1020 30.12 849 25.07 6.8 44.2 28 -10.5 13.1
17:50 1020 30.12 849 25.07 6.5 43.8 28 -10.6 13
17:55 1020 30.12 849 25.07 6.4 43.5 29 -10.4 13.2
18:00 1020 30.12 849 25.07 6.1 42.9 29 -10.7 12.8
18:05 1020 30.12 849 25.07 5.5 42 33 -9.6 14.8
18:10 1020 30.12 849 25.07 4.8 40.6 37 -8.8 16.2
18:15 1020 30.12 849 25.07 4.1 39.3 39 -8.6 16.5
18:20 1020 30.12 849 25.07 3.4 38.1 39 -9.2 15.4
18:25 1020 30.12 849 25.07 3.1 37.6 39 -9.5 14.8
18:30 1020 30.12 849 25.07 3 37.4 38 -9.9 14.3
18:35 1020 30.12 849 25.07 3.1 37.5 38 -9.8 14.4
18:40 1020 30.12 849 25.07 3.1 37.5 39 -9.6 14.7
18:45 1020 30.12 849 25.07 2.7 36.8 44 -8.5 16.8
18:50 1020 30.12 849 25.07 1.8 35.2 49 -7.9 17.7
18:55 1020 30.12 849 25.07 1.2 34.1 49 -8.4 16.8
19:00 1020 30.12 849 25.07 1.2 34.2 45 -9.3 15.2
19:05 1020 30.12 849 25.07 1.6 34.8 42 -9.9 14.2
19:10 1020 30.12 849 25.07 2 35.6 41 -9.8 14.3
19:15 1020 30.12 849 25.07 2 35.7 41 -9.8 14.4
19:20 1020 30.12 849 25.07 2 35.6 43 -9.4 15.2
19:25 1020 30.12 849 25.07 1.8 35.3 42 -9.7 14.6
19:30 1020 30.12 849 25.07 1.9 35.3 41 -9.9 14.1
19:35 1020 30.12 849 25.07 2.1 35.7 41 -9.7 14.5
19:40 1020 30.12 849 25.07 1.9 35.4 42 -9.8 14.3
19:45 1020 30.12 849 25.07 1.9 35.3 43 -9.3 15.2
19:50 1020 30.12 849 25.07 1.6 34.9 44 -9.3 15.3
19:55 1020 30.12 849 25.07 1.5 34.6 46 -9.1 15.7
20:00 1020 30.12 849 25.07 1.5 34.6 46 -9 15.7
20:05 1020 30.12 849 25.07 1.4 34.6 45 -9.1 15.6
20:10 1020 30.12 849 25.07 1.6 34.9 45 -9.1 15.6
20:15 1020 30.12 849 25.07 1.6 34.8 45 -9.1 15.6
20:20 1020 30.12 849 25.07 1.6 34.8 46 -8.8 16.2
20:25 1020 30.12 849 25.07 1.3 34.3 47 -8.8 16.1
20:30 1020 30.12 849 25.07 1.2 34.2 47 -9 15.9
20:35 1020 30.12 849 25.07 1.4 34.6 45 -9.2 15.5
20:40 1020 30.12 849 25.07 1.5 34.8 46 -9 15.8
20:45 1020 30.12 849 25.07 1.6 34.8 44 -9.3 15.2
20:50 1020 30.12 849 25.07 1.9 35.5 43 -9.3 15.3
20:55 1020 30.12 850 25.1 2.2 35.9 44 -8.9 15.9
21:00 1020 30.12 850 25.1 2 35.6 46 -8.6 16.6
21:05 1020 30.12 850 25.1 1.8 35.2 47 -8.4 17
21:10 1020 30.12 850 25.1 1.6 34.9 48 -8.3 17.1
21:15 1020 30.12 850 25.1 1.6 34.8 47 -8.4 16.8
21:20 1021 30.15 850 25.1 1.7 35 47 -8.4 16.9
21:25 1020 30.12 850 25.1 1.7 35.1 47 -8.5 16.7
21:30 1021 30.15 850 25.1 1.8 35.2 47 -8.4 16.8
21:35 1020 30.12 850 25.1 1.7 35.1 47 -8.5 16.8
21:40 1020 30.12 850 25.1 1.6 34.9 48 -8.2 17.3
21:45 1020 30.12 850 25.1 1.4 34.5 48 -8.3 17
21:50 1020 30.12 850 25.1 1.3 34.3 49 -8.3 17
21:55 1020 30.12 850 25.1 1.1 34.1 50 -8.3 17.1
22:00 1020 30.12 850 25.1 1 33.9 50 -8.3 17.1
22:05 1020 30.12 850 25.1 0.9 33.6 50 -8.5 16.8
22:10 1020 30.12 850 25.1 1 33.8 50 -8.4 16.9
22:15 1020 30.12 850 25.1 1 33.9 49 -8.5 16.7
22:20 1020 30.12 850 25.1 1 33.8 49 -8.6 16.5
22:25 1020 30.12 850 25.1 0.8 33.5 50 -8.4 16.9
22:30 1020 30.12 850 25.1 0.5 32.8 51 -8.6 16.6
22:35 1020 30.12 850 25.1 0.6 33 50 -8.6 16.5
22:40 1020 30.12 850 25.1 0.4 32.8 51 -8.6 16.5
22:45 1020 30.12 850 25.1 0.3 32.6 50 -8.8 16.1
22:50 1020 30.12 850 25.1 0.6 33.1 49 -8.9 15.9
22:55 1020 30.12 850 25.1 0.7 33.3 49 -8.7 16.3
23:00 1020 30.12 850 25.1 0.6 33.1 49 -8.9 15.9
23:05 1020 30.12 849 25.07 0.6 33.1 50 -8.7 16.3
23:10 1020 30.12 849 25.07 0.4 32.7 50 -8.8 16.1
23:15 1020 30.12 850 25.1 0.6 33.2 48 -9.2 15.5
23:20 1020 30.12 850 25.1 0.8 33.4 47 -9.3 15.3
23:25 1020 30.12 850 25.1 0.9 33.7 47 -9.1 15.6
23:30 1020 30.12 850 25.1 0.7 33.3 48 -9.1 15.6
23:35 1020 30.12 850 25.1 0.7 33.2 48 -9.2 15.4
23:40 1020 30.12 850 25.1 0.5 32.9 49 -8.9 16
23:45 1020 30.12 850 25.1 0.2 32.3 51 -8.8 16.2
23:50 1020 30.12 850 25.1 -0 32 51 -9 15.8
23:55 1021 30.15 850 25.1 -0.1 31.8 51 -9.1 15.5
24:00 1021 30.15 850 25.1 -0 31.9 49 -9.5 14.8